Portada
METAR-TAF:

METAR-TAF

Aeroports :

Colònia, Alemanya

latitud: 50-52N, longitud: 007-10E, altitud: 91 m

Observació

L'informe es va fer fa 22 minuts, a les 14:50 UTC
Vent 6 kt del Oest, variant entre Oest/Sud-Oest i Nord-Oest
Temperatura 11°C
Humitat 30%
Pressió 1018 hPa
Visibilitat 10 km o més
sense núvols per sota de 1500 mi sense presència de cumulonimbus.

METAR: EDDK 011450Z 28006KT 240V320 CAVOK 11/M06 Q1018 NOSIG

Hora: 17:12 (15:12 UTC)

Pronòstic

L'informe es va fer fa 4 hores i 12 minuts, a les 11:00 UTC
Pronòstic vàlid del 01 a les 12 UTC al 02 a les 18 UTC
Vent 5 kt del Nord-Oest
Visibilitat 10 km o més
sense núvols per sota de 1500 mi sense presència de cumulonimbus.
Evolucionant progressivament
l' 01 a les 18 UTC al 01 a les 21 UTC
Vent 3 kt amb direcció variable
Evolucionant progressivament
l' 02 a les 09 UTC al 02 a les 12 UTC
Vent 8 kt del Oest

TAF: EDDK 011100Z 0112/0218 32005KT CAVOK BECMG 0118/0121 VRB03KT BECMG 0209/0212 27008KT

Observacions i pronòstics meteorològics de més de 4000 aeroports (METAR i TAF).

Les estacions disponibles són els punts grocs i vermells al mapa.

Posi el ratolí al punt desitjat per veure el nom de l'estació.

Feu clic per veure les observacions i els pronòstics meteorològics.

Per canviar el mapa: feu clic els botons verds amb una creu de color negre per apropar; al botó verd amb un guió per allunyar la imatge; o en les fletxes verdes per a mapes adjacents.


METAR-TAF: